Time;durP1;ratioP1;P1;durP2;ratioP2;P2;SDS_P1;SDS_P2;PMS_P1;PMS_P2;Temp;Humidity;BMP_temperature;BMP_pressure;BME280_temperature;BME280_humidity;BME280_pressure;Samples;Min_cycle;Max_cycle;Signal;HPM_P1;HPM_P2
2022/10/12 00:00:20;;;;;;;8.65;2.58;;;8.00;74.20;;;;;;9180615;19;20019;-62
2022/10/12 00:03:24;;;;;;;;;;;8.00;74.20;;;;;;9181262;19;20014;-61
2022/10/12 00:06:28;;;;;;;5.32;2.65;;;8.00;74.20;;;;;;9177383;19;19970;-61
2022/10/12 00:09:31;;;;;;;5.65;2.33;;;8.00;74.10;;;;;;9177407;19;20028;-63
2022/10/12 00:12:37;;;;;;;6.13;2.20;;;7.90;74.20;;;;;;9177872;19;20018;-60
2022/10/12 00:15:41;;;;;;;7.20;2.78;;;7.90;74.20;;;;;;9179868;19;20359;-62
2022/10/12 00:18:45;;;;;;;7.50;3.05;;;7.90;74.30;;;;;;9179159;19;20022;-61
2022/10/12 00:21:49;;;;;;;5.75;2.88;;;7.80;74.30;;;;;;9178397;19;20404;-62
2022/10/12 00:24:54;;;;;;;8.00;2.45;;;7.80;74.30;;;;;;9175020;19;20018;-60
2022/10/12 00:27:59;;;;;;;9.35;2.97;;;7.80;74.30;;;;;;9177092;19;20018;-60
2022/10/12 00:31:07;;;;;;;6.50;2.85;;;7.70;74.30;;;;;;9178155;19;20018;-60
2022/10/12 00:34:11;;;;;;;8.35;3.35;;;7.70;74.30;;;;;;9178112;19;20018;-62
2022/10/12 00:37:14;;;;;;;7.30;2.55;;;7.70;74.40;;;;;;9179575;19;20019;-61
2022/10/12 00:40:18;;;;;;;6.50;2.80;;;7.70;74.40;;;;;;9179735;19;20022;-61
2022/10/12 00:43:33;;;;;;;6.15;2.80;;;7.60;74.30;;;;;;9179003;19;20034;-60
2022/10/12 00:46:41;;;;;;;10.40;2.60;;;7.60;74.40;;;;;;9176337;19;20475;-64
2022/10/12 00:49:49;;;;;;;6.15;2.58;;;7.60;74.40;;;;;;9178441;19;20066;-61
2022/10/12 00:53:01;;;;;;;2.95;2.33;;;7.60;74.40;;;;;;9175490;19;20023;-62
2022/10/12 00:56:07;;;;;;;3.75;2.45;;;7.60;74.50;;;;;;9176439;19;20482;-62
2022/10/12 00:59:17;;;;;;;6.15;2.80;;;7.50;74.50;;;;;;9178815;19;20605;-63
2022/10/12 01:02:21;;;;;;;5.80;3.28;;;7.50;74.50;;;;;;9179182;19;20014;-62
2022/10/12 01:05:25;;;;;;;5.55;3.10;;;7.50;74.50;;;;;;9174268;19;20078;-60
2022/10/12 01:08:30;;;;;;;5.78;2.88;;;7.40;74.50;;;;;;9178370;19;20023;-63
2022/10/12 01:11:33;;;;;;;5.50;3.00;;;7.40;74.50;;;;;;9175177;19;20040;-61
2022/10/12 01:14:39;;;;;;;5.80;3.40;;;7.40;74.60;;;;;;9178096;19;20093;-61
2022/10/12 01:17:50;;;;;;;5.43;2.65;;;7.40;74.60;;;;;;9177966;19;20050;-60
2022/10/12 01:21:05;;;;;;;5.57;2.97;;;7.30;74.60;;;;;;9175556;19;20031;-61
2022/10/12 01:24:49;;;;;;;6.00;3.38;;;7.30;74.60;;;;;;9172761;19;20014;-61
2022/10/12 01:27:55;;;;;;;6.03;3.22;;;7.30;74.70;;;;;;9175778;19;20022;-61
2022/10/12 01:31:08;;;;;;;6.72;3.15;;;7.30;74.70;;;;;;9175079;19;20010;-62
2022/10/12 01:34:20;;;;;;;9.90;3.45;;;7.30;74.70;;;;;;9177171;19;20018;-60
2022/10/12 01:37:32;;;;;;;9.20;3.45;;;7.20;74.60;;;;;;9176129;19;20379;-62
2022/10/12 01:40:41;;;;;;;6.25;3.50;;;7.30;74.70;;;;;;9172492;19;20038;-62
2022/10/12 01:43:45;;;;;;;7.72;3.83;;;7.20;74.70;;;;;;9176539;19;20048;-63
2022/10/12 01:46:52;;;;;;;9.15;3.70;;;7.20;74.70;;;;;;9175797;19;20364;-61
2022/10/12 01:49:56;;;;;;;8.68;4.35;;;7.20;74.70;;;;;;9176573;19;20108;-62
2022/10/12 01:53:10;;;;;;;6.10;3.58;;;7.20;74.80;;;;;;9172294;19;20106;-62
2022/10/12 01:56:23;;;;;;;12.30;4.03;;;7.10;74.80;;;;;;9176269;19;20018;-59
2022/10/12 01:59:35;;;;;;;6.82;3.80;;;7.20;74.80;;;;;;9175231;19;20030;-63
2022/10/12 02:02:51;;;;;;;9.15;4.22;;;7.10;74.80;;;;;;9175892;19;20020;-60
2022/10/12 02:06:01;;;;;;;7.72;3.72;;;7.10;74.80;;;;;;9173419;19;20064;-62
2022/10/12 02:09:10;;;;;;;6.75;3.50;;;7.10;74.80;;;;;;9176088;19;20170;-61
2022/10/12 02:12:17;;;;;;;8.15;4.10;;;7.10;74.80;;;;;;9173874;19;20433;-60
2022/10/12 02:15:25;;;;;;;9.82;4.80;;;7.10;74.90;;;;;;9174674;19;20082;-63
2022/10/12 02:18:33;;;;;;;21.35;5.30;;;7.10;74.90;;;;;;9175077;19;20363;-61
2022/10/12 02:21:37;;;;;;;8.60;4.55;;;7.00;74.90;;;;;;9175039;19;20013;-63
2022/10/12 02:24:43;;;;;;;10.93;5.00;;;7.00;74.90;;;;;;9169630;19;20098;-60
2022/10/12 02:27:54;;;;;;;16.70;4.85;;;7.00;74.90;;;;;;9172925;19;20014;-61
2022/10/12 02:31:03;;;;;;;14.30;5.47;;;7.00;75.00;;;;;;9173678;19;20010;-61
2022/10/12 02:34:14;;;;;;;7.07;3.88;;;7.00;75.00;;;;;;9174730;19;20010;-61
2022/10/12 02:37:27;;;;;;;9.57;4.40;;;7.00;75.10;;;;;;9174372;19;20014;-61
2022/10/12 02:40:37;;;;;;;9.27;4.60;;;6.90;75.00;;;;;;9174660;19;20366;-60
2022/10/12 02:43:45;;;;;;;11.38;4.60;;;7.00;75.10;;;;;;9174874;19;20169;-61
2022/10/12 02:46:50;;;;;;;8.85;4.53;;;6.90;75.00;;;;;;9171625;19;20038;-61
2022/10/12 02:49:57;;;;;;;10.57;4.10;;;6.90;75.00;;;;;;9175111;19;20044;-62
2022/10/12 02:53:01;;;;;;;8.10;4.18;;;6.90;75.10;;;;;;9180727;19;20417;-60
2022/10/12 02:56:07;;;;;;;7.53;4.05;;;6.90;75.10;;;;;;9180504;19;20117;-60
2022/10/12 02:59:11;;;;;;;16.33;4.22;;;6.90;75.10;;;;;;9182455;19;20018;-61
2022/10/12 03:02:14;;;;;;;18.80;5.28;;;6.90;75.10;;;;;;9182411;19;20015;-64
2022/10/12 03:05:20;;;;;;;11.60;4.13;;;6.90;75.10;;;;;;9180291;19;20026;-61
2022/10/12 03:08:23;;;;;;;9.82;4.22;;;6.80;75.20;;;;;;9181951;19;20347;-61
2022/10/12 03:11:27;;;;;;;9.20;4.20;;;6.80;75.10;;;;;;9180969;19;20021;-61
2022/10/12 03:14:32;;;;;;;10.57;3.80;;;6.80;75.20;;;;;;9182200;19;20370;-62
2022/10/12 03:17:36;;;;;;;7.25;4.40;;;6.80;75.20;;;;;;9181306;19;20085;-61
2022/10/12 03:20:42;;;;;;;;;;;6.80;75.30;;;;;;9183169;19;20006;-61
2022/10/12 03:23:45;;;;;;;10.75;3.92;;;6.80;75.20;;;;;;9176658;19;19918;-63
2022/10/12 03:26:49;;;;;;;6.55;3.97;;;6.80;75.10;;;;;;9181034;19;20014;-61
2022/10/12 03:29:53;;;;;;;9.27;3.70;;;6.80;75.20;;;;;;9181237;19;20412;-61
2022/10/12 03:32:57;;;;;;;7.30;4.10;;;6.80;75.20;;;;;;9179329;19;20018;-61
2022/10/12 03:36:02;;;;;;;7.07;3.70;;;6.80;75.30;;;;;;9181692;19;20018;-61
2022/10/12 03:39:06;;;;;;;8.57;3.50;;;6.80;75.30;;;;;;9178896;19;20022;-60
2022/10/12 03:42:09;;;;;;;6.80;3.88;;;6.70;75.20;;;;;;9179010;19;20040;-61
2022/10/12 03:45:13;;;;;;;8.63;4.20;;;6.80;75.30;;;;;;9179756;19;20479;-61
2022/10/12 03:48:17;;;;;;;11.25;4.10;;;6.80;75.40;;;;;;9180535;19;20014;-59
2022/10/12 03:51:22;;;;;;;9.70;4.05;;;6.70;75.30;;;;;;9180201;19;20350;-60
2022/10/12 03:54:26;;;;;;;8.20;4.35;;;6.70;75.30;;;;;;9178018;19;20015;-61
2022/10/12 03:57:30;;;;;;;12.55;3.72;;;6.70;75.30;;;;;;9180056;19;20025;-60
2022/10/12 04:00:33;;;;;;;9.80;4.00;;;6.70;75.40;;;;;;9180840;19;20430;-61
2022/10/12 04:03:37;;;;;;;8.75;3.55;;;6.70;75.40;;;;;;9177634;19;20052;-61
2022/10/12 04:06:43;;;;;;;7.75;3.40;;;6.70;75.40;;;;;;9177393;19;20862;-60
2022/10/12 04:09:46;;;;;;;7.28;3.55;;;6.70;75.40;;;;;;9181303;19;20022;-60
2022/10/12 04:12:50;;;;;;;10.48;3.90;;;6.70;75.40;;;;;;9178239;19;20468;-62
2022/10/12 04:15:54;;;;;;;11.52;3.80;;;6.70;75.50;;;;;;9180486;19;20022;-61
2022/10/12 04:18:58;;;;;;;10.50;3.67;;;6.70;75.50;;;;;;9178573;19;20083;-61
2022/10/12 04:22:03;;;;;;;5.18;3.42;;;6.60;75.40;;;;;;9178739;19;20752;-61
2022/10/12 04:25:07;;;;;;;9.02;3.92;;;6.70;75.50;;;;;;9175495;19;20018;-60
2022/10/12 04:28:11;;;;;;;12.68;4.18;;;6.70;75.50;;;;;;9180407;19;20010;-62
2022/10/12 04:31:15;;;;;;;;;;;6.60;75.50;;;;;;9178970;19;20402;-61
2022/10/12 04:34:18;;;;;;;11.20;4.55;;;6.60;75.40;;;;;;9179674;19;19986;-61
2022/10/12 04:37:24;;;;;;;5.72;3.28;;;6.60;75.30;;;;;;9180434;19;20014;-60
2022/10/12 04:40:28;;;;;;;10.57;4.47;;;6.60;75.50;;;;;;9179775;19;20082;-62
2022/10/12 04:43:31;;;;;;;7.35;3.40;;;6.60;75.40;;;;;;9175889;19;20029;-61
2022/10/12 04:46:35;;;;;;;12.27;4.18;;;6.60;75.50;;;;;;9178442;19;20461;-61
2022/10/12 04:49:39;;;;;;;9.98;4.43;;;6.50;75.50;;;;;;9176061;19;20022;-60
2022/10/12 04:52:44;;;;;;;12.52;3.83;;;6.60;75.50;;;;;;9175632;19;20483;-63
2022/10/12 04:55:48;;;;;;;7.82;3.70;;;6.50;75.50;;;;;;9178359;19;20987;-62
2022/10/12 04:58:52;;;;;;;13.40;3.88;;;6.50;75.60;;;;;;9180564;19;20078;-61
2022/10/12 05:01:55;;;;;;;18.95;3.90;;;6.50;75.50;;;;;;9176739;19;20014;-61
2022/10/12 05:04:59;;;;;;;10.18;4.13;;;6.50;75.50;;;;;;9176776;19;20025;-66
2022/10/12 05:08:05;;;;;;;6.70;3.45;;;6.50;75.60;;;;;;9176704;19;20491;-60
2022/10/12 05:11:09;;;;;;;8.88;3.60;;;6.50;75.60;;;;;;9175972;19;20010;-60
2022/10/12 05:14:13;;;;;;;9.32;4.07;;;6.50;75.60;;;;;;9175633;19;20018;-60
2022/10/12 05:17:17;;;;;;;10.93;3.75;;;6.50;75.70;;;;;;9176078;19;20090;-61
2022/10/12 05:20:20;;;;;;;8.32;3.70;;;6.50;75.60;;;;;;9177474;19;20512;-60
2022/10/12 05:23:26;;;;;;;6.65;3.92;;;6.40;75.60;;;;;;9172672;19;20474;-61
2022/10/12 05:26:29;;;;;;;7.75;2.83;;;6.40;75.60;;;;;;9177894;19;20093;-62
2022/10/12 05:29:33;;;;;;;12.75;3.88;;;6.40;75.60;;;;;;9177573;19;20082;-60
2022/10/12 05:32:37;;;;;;;12.57;4.35;;;6.40;75.70;;;;;;9175578;19;20021;-60
2022/10/12 05:35:41;;;;;;;7.32;4.30;;;6.40;75.70;;;;;;9177132;19;20014;-60
2022/10/12 05:38:53;;;;;;;10.35;4.00;;;6.30;75.60;;;;;;9177704;19;20497;-61
2022/10/12 05:41:57;;;;;;;8.10;3.85;;;6.30;75.70;;;;;;9176288;19;20014;-61
2022/10/12 05:45:01;;;;;;;13.65;4.25;;;6.30;75.70;;;;;;9175390;19;20026;-63
2022/10/12 05:48:05;;;;;;;17.85;5.38;;;6.30;75.70;;;;;;9176303;19;20029;-61
2022/10/12 05:51:08;;;;;;;14.35;4.53;;;6.30;75.70;;;;;;9176682;19;20572;-62
2022/10/12 05:54:14;;;;;;;8.73;4.40;;;6.30;75.80;;;;;;9176123;19;20014;-63
2022/10/12 05:57:18;;;;;;;10.77;3.88;;;6.20;75.70;;;;;;9176227;19;20048;-61
2022/10/12 06:00:21;;;;;;;;;;;6.20;75.70;;;;;;9176841;19;20042;-61
2022/10/12 06:03:25;;;;;;;8.25;3.75;;;6.20;75.70;;;;;;9171226;19;19937;-61
2022/10/12 06:06:30;;;;;;;9.70;4.72;;;6.20;75.60;;;;;;9172286;19;20035;-61
2022/10/12 06:09:37;;;;;;;10.95;4.70;;;6.20;75.70;;;;;;9175974;19;20014;-60
2022/10/12 06:12:42;;;;;;;7.68;4.50;;;6.20;75.70;;;;;;9170557;19;20021;-62
2022/10/12 06:15:46;;;;;;;12.73;5.75;;;6.20;75.80;;;;;;9168386;19;20022;-61
2022/10/12 06:18:49;;;;;;;;;;;6.10;75.80;;;;;;9167427;19;20029;-64
2022/10/12 06:21:53;;;;;;;12.20;4.15;;;6.20;75.80;;;;;;9169224;19;19931;-63
2022/10/12 06:24:58;;;;;;;9.65;3.65;;;6.10;75.70;;;;;;9165489;19;20086;-63
2022/10/12 06:28:02;;;;;;;8.73;4.25;;;6.10;75.70;;;;;;9176209;19;20551;-62
2022/10/12 06:31:06;;;;;;;14.23;3.80;;;6.10;75.80;;;;;;9173191;19;20074;-63
2022/10/12 06:34:10;;;;;;;16.55;4.07;;;6.10;75.90;;;;;;9170302;19;20102;-62
2022/10/12 06:37:13;;;;;;;13.07;4.43;;;6.10;75.90;;;;;;9175244;19;20400;-62
2022/10/12 06:40:39;;;;;;;22.03;5.33;;;6.10;75.90;;;;;;9177557;19;20107;-65
2022/10/12 06:43:43;;;;;;;58.08;6.90;;;6.10;75.90;;;;;;9174128;19;20460;-64
2022/10/12 06:46:47;;;;;;;39.85;7.35;;;6.10;75.90;;;;;;9179289;19;20046;-63
2022/10/12 06:49:51;;;;;;;62.05;10.32;;;6.10;76.00;;;;;;9176964;19;20078;-61
2022/10/12 06:52:54;;;;;;;32.83;6.90;;;6.10;76.60;;;;;;9175623;19;20010;-61
2022/10/12 06:56:00;;;;;;;45.60;6.97;;;6.10;76.00;;;;;;9181248;19;20035;-61
2022/10/12 06:59:04;;;;;;;33.00;5.35;;;6.10;76.00;;;;;;9183179;19;20019;-62
2022/10/12 07:02:09;;;;;;;21.45;5.22;;;6.10;76.10;;;;;;9183794;19;20014;-64
2022/10/12 07:05:13;;;;;;;13.40;4.90;;;6.10;76.10;;;;;;9180777;19;20015;-61
2022/10/12 07:08:16;;;;;;;12.50;5.95;;;6.10;76.10;;;;;;9182989;19;20039;-60
2022/10/12 07:11:22;;;;;;;12.00;3.90;;;6.10;76.10;;;;;;9182343;19;20346;-59
2022/10/12 07:14:26;;;;;;;13.75;4.72;;;6.10;76.20;;;;;;9182701;19;20060;-60
2022/10/12 07:17:30;;;;;;;9.70;4.47;;;6.10;76.20;;;;;;9180534;19;20646;-60
2022/10/12 07:20:34;;;;;;;12.93;4.63;;;6.20;76.30;;;;;;9182737;19;20540;-60
2022/10/12 07:23:39;;;;;;;11.88;5.00;;;6.20;76.40;;;;;;9179004;19;20015;-61
2022/10/12 07:26:51;;;;;;;19.45;5.10;;;6.20;76.40;;;;;;9180039;19;20082;-62
2022/10/12 07:29:54;;;;;;;10.48;5.10;;;6.30;76.60;;;;;;9177883;19;20340;-61
2022/10/12 07:32:58;;;;;;;14.07;5.70;;;6.30;76.70;;;;;;9177398;19;20014;-61
2022/10/12 07:36:02;;;;;;;18.27;6.50;;;6.50;76.90;;;;;;9180183;19;20021;-60
2022/10/12 07:39:25;;;;;;;15.18;6.32;;;6.50;76.90;;;;;;9178853;19;20018;-63
2022/10/12 07:42:31;;;;;;;25.95;7.03;;;6.70;77.10;;;;;;9181477;19;20021;-60
2022/10/12 07:45:35;;;;;;;17.40;6.93;;;6.90;77.20;;;;;;9175310;19;20018;-60
2022/10/12 07:48:40;;;;;;;14.95;7.15;;;7.00;77.30;;;;;;9181927;19;20025;-61
2022/10/12 07:51:50;;;;;;;15.60;6.95;;;7.20;77.30;;;;;;9178753;19;20018;-60
2022/10/12 07:54:54;;;;;;;20.42;7.18;;;7.30;77.30;;;;;;9172609;19;20051;-66
2022/10/12 07:57:59;;;;;;;16.45;5.82;;;7.50;77.30;;;;;;9173181;19;21836;-63
2022/10/12 08:01:06;;;;;;;13.40;6.80;;;7.60;77.20;;;;;;9172119;19;20081;-62
2022/10/12 08:04:11;;;;;;;12.40;5.93;;;7.70;77.20;;;;;;9170472;19;20404;-62
2022/10/12 08:07:14;;;;;;;20.52;6.38;;;7.90;77.20;;;;;;9171857;19;20038;-63
2022/10/12 08:10:19;;;;;;;20.30;6.20;;;8.00;77.20;;;;;;9168497;19;20022;-64
2022/10/12 08:13:24;;;;;;;21.73;7.25;;;8.10;77.20;;;;;;9166144;19;20475;-62
2022/10/12 08:16:28;;;;;;;18.80;6.07;;;8.20;77.10;;;;;;9170136;19;20028;-62
2022/10/12 08:19:32;;;;;;;16.45;5.85;;;8.30;77.10;;;;;;9169008;19;20411;-62
2022/10/12 08:22:38;;;;;;;17.42;5.30;;;8.30;77.10;;;;;;9163580;19;20105;-61
2022/10/12 08:25:42;;;;;;;12.73;5.72;;;8.40;77.10;;;;;;9167951;19;20435;-61
2022/10/12 08:28:48;;;;;;;17.02;5.78;;;8.50;77.10;;;;;;9172923;19;20035;-61
2022/10/12 08:31:53;;;;;;;22.67;5.80;;;8.60;77.20;;;;;;9171040;19;20019;-63
2022/10/12 08:34:56;;;;;;;12.93;5.30;;;8.70;77.20;;;;;;9167109;19;20701;-61
2022/10/12 08:38:00;;;;;;;21.08;5.88;;;8.70;77.20;;;;;;9170751;19;20019;-62
2022/10/12 08:41:15;;;;;;;17.25;5.50;;;8.80;77.20;;;;;;9176773;19;20019;-66
2022/10/12 08:44:35;;;;;;;;;;;8.90;77.30;;;;;;9175926;19;20043;-65
2022/10/12 08:47:43;;;;;;;17.92;5.70;;;9.00;77.20;;;;;;9177638;19;19925;-61
2022/10/12 08:50:51;;;;;;;17.27;6.60;;;9.00;77.00;;;;;;9178289;19;20015;-63
2022/10/12 08:53:58;;;;;;;19.63;6.05;;;9.10;77.20;;;;;;9174095;19;21308;-62
2022/10/12 08:57:02;;;;;;;19.77;6.25;;;9.20;77.20;;;;;;9179146;19;20021;-65
2022/10/12 09:00:13;;;;;;;15.60;7.00;;;9.30;77.20;;;;;;9178785;19;20014;-61
2022/10/12 09:03:29;;;;;;;11.77;5.65;;;9.40;77.30;;;;;;9176100;19;20030;-63
2022/10/12 09:06:38;;;;;;;12.73;4.95;;;9.50;77.40;;;;;;9174125;19;20085;-62
2022/10/12 09:10:01;;;;;;;16.73;6.10;;;9.60;77.30;;;;;;9174873;19;20408;-62
2022/10/12 09:13:11;;;;;;;15.18;5.90;;;9.70;77.50;;;;;;9174783;19;20030;-63
2022/10/12 09:16:22;;;;;;;18.08;5.95;;;9.70;77.40;;;;;;9175158;19;20030;-62
2022/10/12 09:19:31;;;;;;;22.40;6.22;;;9.90;77.50;;;;;;9175712;19;20022;-61
2022/10/12 09:22:35;;;;;;;20.30;6.22;;;10.00;77.50;;;;;;9171491;19;20086;-62
2022/10/12 09:25:41;;;;;;;18.70;6.80;;;10.10;77.50;;;;;;9178694;19;20039;-61
2022/10/12 09:28:46;;;;;;;20.52;7.22;;;10.20;77.50;;;;;;9175186;19;20053;-63
2022/10/12 09:32:08;;;;;;;20.77;6.78;;;10.30;77.70;;;;;;9171349;19;20021;-60
2022/10/12 09:35:14;;;;;;;24.42;6.85;;;10.40;77.80;;;;;;9177051;19;20034;-62
2022/10/12 09:38:18;;;;;;;24.80;7.28;;;10.60;77.90;;;;;;9176708;19;20074;-64
2022/10/12 09:41:23;;;;;;;21.50;6.68;;;10.80;77.90;;;;;;9171989;19;20437;-64
2022/10/12 09:44:32;;;;;;;24.05;7.90;;;11.00;78.00;;;;;;9168534;19;20012;-60
2022/10/12 09:47:38;;;;;;;16.80;7.13;;;11.30;78.10;;;;;;9173974;19;20435;-62
2022/10/12 09:50:45;;;;;;;18.83;6.85;;;11.60;78.10;;;;;;9172801;19;20078;-64
2022/10/12 09:53:51;;;;;;;23.77;6.55;;;12.00;78.10;;;;;;9169469;19;20022;-61
2022/10/12 09:57:01;;;;;;;16.10;6.28;;;12.20;77.90;;;;;;9172818;19;20053;-61
2022/10/12 10:00:06;;;;;;;;;;;12.60;77.80;;;;;;9176578;19;20007;-61
2022/10/12 10:03:25;;;;;;;15.48;5.50;;;12.90;78.20;;;;;;9182085;19;19918;-64
2022/10/12 10:06:34;;;;;;;15.23;5.68;;;13.20;77.30;;;;;;9180352;19;20014;-62
2022/10/12 10:09:38;;;;;;;17.17;5.60;;;13.50;77.10;;;;;;9181842;19;20110;-60
2022/10/12 10:12:48;;;;;;;16.83;5.47;;;13.80;76.90;;;;;;9182365;19;20018;-60
2022/10/12 10:16:02;;;;;;;19.58;6.25;;;14.10;76.70;;;;;;9182118;19;20101;-63
2022/10/12 10:19:17;;;;;;;;;;;14.30;76.50;;;;;;9183169;19;20018;-63
2022/10/12 10:22:22;;;;;;;15.07;5.10;;;14.60;76.30;;;;;;9183833;19;19925;-63
2022/10/12 10:25:27;;;;;;;14.07;5.40;;;14.80;76.10;;;;;;9179837;19;20011;-62
2022/10/12 10:28:33;;;;;;;9.68;4.68;;;15.00;75.90;;;;;;9176820;19;20031;-64
2022/10/12 10:31:37;;;;;;;13.00;4.20;;;15.20;75.60;;;;;;9173382;19;20022;-63
2022/10/12 10:34:44;;;;;;;11.25;4.15;;;15.50;75.40;;;;;;9167106;19;20019;-61
2022/10/12 10:37:50;;;;;;;13.25;3.05;;;15.70;75.20;;;;;;9167592;19;20021;-64
2022/10/12 10:40:56;;;;;;;13.73;3.40;;;15.90;74.90;;;;;;9168213;19;20557;-65
2022/10/12 10:44:00;;;;;;;15.38;3.55;;;16.10;74.60;;;;;;9170486;19;20011;-63
2022/10/12 10:47:10;;;;;;;13.23;3.60;;;16.20;74.30;;;;;;9174052;19;20026;-64
2022/10/12 10:50:26;;;;;;;9.73;2.80;;;16.50;74.00;;;;;;9168765;19;20018;-65
2022/10/12 10:53:34;;;;;;;21.48;4.10;;;16.60;73.50;;;;;;9169875;19;20078;-63
2022/10/12 10:56:37;;;;;;;12.07;3.03;;;16.80;73.50;;;;;;9168697;19;20046;-63
2022/10/12 10:59:46;;;;;;;11.68;3.38;;;16.90;73.30;;;;;;9169287;19;20018;-62
2022/10/12 11:02:53;;;;;;;12.52;3.35;;;17.10;73.00;;;;;;9170243;19;20024;-62
2022/10/12 11:06:09;;;;;;;9.75;3.15;;;17.20;72.80;;;;;;9173515;19;20497;-63
2022/10/12 11:09:16;;;;;;;13.60;3.13;;;17.30;73.10;;;;;;9179364;19;20022;-64
2022/10/12 11:12:24;;;;;;;9.55;2.95;;;17.50;72.30;;;;;;9175008;19;20808;-66
2022/10/12 11:15:36;;;;;;;;;;;17.60;72.00;;;;;;9176326;19;20018;-63
2022/10/12 11:18:44;;;;;;;11.52;3.13;;;17.70;72.00;;;;;;9179394;19;19925;-62
2022/10/12 11:21:54;;;;;;;14.00;3.38;;;17.90;71.90;;;;;;9179427;19;20052;-62
2022/10/12 11:25:06;;;;;;;12.50;3.17;;;17.90;71.50;;;;;;9174693;19;20022;-66
2022/10/12 11:28:15;;;;;;;9.73;3.10;;;18.00;71.20;;;;;;9173093;19;20035;-63
2022/10/12 11:31:23;;;;;;;10.00;3.00;;;18.10;71.00;;;;;;9175127;19;20026;-61
2022/10/12 11:34:29;;;;;;;23.50;3.92;;;18.20;70.80;;;;;;9175337;19;20107;-61
2022/10/12 11:37:41;;;;;;;10.25;3.13;;;18.30;70.60;;;;;;9181258;19;20479;-63
2022/10/12 11:40:51;;;;;;;13.02;2.97;;;18.40;70.20;;;;;;9179359;19;20049;-63
2022/10/12 11:44:18;;;;;;;17.10;3.35;;;18.50;70.10;;;;;;9174732;19;20025;-62
2022/10/12 11:47:31;;;;;;;8.95;2.83;;;18.60;70.10;;;;;;9179884;19;20052;-61
2022/10/12 11:50:38;;;;;;;14.27;3.55;;;18.60;69.60;;;;;;9176738;19;20023;-61
2022/10/12 11:53:54;;;;;;;8.02;3.05;;;18.70;69.50;;;;;;9176370;19;20029;-63
2022/10/12 11:57:02;;;;;;;11.25;3.78;;;18.80;69.20;;;;;;9178833;19;20022;-64
2022/10/12 12:00:13;;;;;;;16.05;3.13;;;18.90;69.20;;;;;;9175367;19;20086;-62
2022/10/12 12:03:26;;;;;;;14.40;3.72;;;18.90;68.90;;;;;;9172679;19;20007;-62
2022/10/12 12:06:49;;;;;;;11.23;2.67;;;18.90;68.70;;;;;;9177830;19;20014;-62
2022/10/12 12:09:55;;;;;;;14.88;3.10;;;19.00;68.30;;;;;;9175403;19;20016;-64
2022/10/12 12:13:18;;;;;;;13.15;2.95;;;19.00;68.50;;;;;;9172573;19;20014;-62
2022/10/12 12:16:27;;;;;;;9.25;2.80;;;19.10;68.10;;;;;;9169117;19;20022;-65
2022/10/12 12:19:39;;;;;;;8.55;2.80;;;19.10;68.30;;;;;;9169844;19;20021;-64
2022/10/12 12:22:53;;;;;;;14.60;2.92;;;19.10;67.90;;;;;;9163855;19;20036;-64
2022/10/12 12:26:14;;;;;;;12.02;2.88;;;19.10;67.70;;;;;;9173619;19;20021;-64
2022/10/12 12:29:27;;;;;;;11.47;2.97;;;19.20;67.60;;;;;;9171063;19;20019;-64
2022/10/12 12:32:43;;;;;;;13.13;2.92;;;19.20;67.70;;;;;;9172818;19;20007;-63
2022/10/12 12:35:55;;;;;;;11.80;2.78;;;19.20;67.30;;;;;;9166730;19;20537;-63
2022/10/12 12:38:59;;;;;;;7.50;2.38;;;19.20;67.20;;;;;;9173048;19;20022;-65
2022/10/12 12:42:05;;;;;;;;;;;19.20;67.20;;;;;;9165737;19;20040;-64
2022/10/12 12:45:41;;;;;;;24.52;4.63;;;19.10;67.30;;;;;;9169600;19;19930;-62
2022/10/12 12:49:06;;;;;;;14.85;2.83;;;19.10;66.90;;;;;;9173387;19;20018;-62
2022/10/12 12:52:19;;;;;;;13.23;3.33;;;19.00;66.80;;;;;;9164710;19;20018;-66
2022/10/12 12:55:46;;;;;;;16.45;2.78;;;18.90;66.90;;;;;;9172142;19;20030;-62
2022/10/12 12:59:17;;;;;;;10.48;2.60;;;18.80;66.70;;;;;;9166935;19;20018;-65
2022/10/12 13:02:57;;;;;;;19.30;4.30;;;18.70;66.50;;;;;;9166855;19;20804;-63
2022/10/12 13:06:45;;;;;;;12.15;2.92;;;18.60;66.50;;;;;;9167697;19;20053;-63
2022/10/12 13:10:15;;;;;;;5.80;2.13;;;18.50;66.60;;;;;;9164191;19;20015;-64
2022/10/12 13:13:41;;;;;;;12.43;2.63;;;18.30;66.60;;;;;;9164833;19;20526;-64
2022/10/12 13:17:18;;;;;;;15.05;3.22;;;18.20;66.50;;;;;;9160419;19;20003;-62
2022/10/12 13:20:40;;;;;;;12.32;2.80;;;18.00;66.50;;;;;;9166214;19;20019;-63
2022/10/12 13:23:46;;;;;;;10.48;2.30;;;17.90;66.80;;;;;;9159801;19;20766;-62
2022/10/12 13:26:53;;;;;;;11.52;2.63;;;17.80;66.80;;;;;;9168813;19;20010;-64
2022/10/12 13:30:00;;;;;;;8.98;2.20;;;17.70;66.70;;;;;;9163445;19;20017;-62
2022/10/12 13:33:16;;;;;;;9.10;2.03;;;17.60;66.70;;;;;;9168289;19;20093;-64
2022/10/12 13:36:24;;;;;;;8.50;2.30;;;17.50;66.50;;;;;;9167625;19;20095;-63
2022/10/12 13:39:30;;;;;;;14.10;2.40;;;17.50;66.70;;;;;;9169642;19;20019;-62
2022/10/12 13:42:38;;;;;;;11.68;2.38;;;17.40;66.60;;;;;;9165898;19;20018;-61
2022/10/12 13:45:45;;;;;;;8.68;2.55;;;17.30;66.60;;;;;;9170630;19;20085;-62
2022/10/12 13:48:53;;;;;;;11.73;2.88;;;17.20;66.50;;;;;;9174455;19;20023;-63
2022/10/12 13:52:16;;;;;;;12.10;2.58;;;17.10;66.60;;;;;;9169448;19;20014;-61
2022/10/12 13:55:26;;;;;;;11.57;2.28;;;17.10;66.60;;;;;;9172479;19;20014;-62
2022/10/12 13:58:32;;;;;;;10.50;3.13;;;17.00;66.40;;;;;;9176520;19;20026;-64
2022/10/12 14:01:49;;;;;;;9.95;2.85;;;17.00;66.50;;;;;;9175496;19;20081;-61
2022/10/12 14:04:56;;;;;;;14.07;2.20;;;16.90;66.20;;;;;;9172864;19;20021;-61
2022/10/12 14:08:03;;;;;;;7.85;2.15;;;16.80;66.30;;;;;;9170846;19;20135;-61
2022/10/12 14:11:07;;;;;;;11.63;1.70;;;16.80;66.40;;;;;;9174849;19;20372;-61
2022/10/12 14:14:19;;;;;;;8.85;1.80;;;16.80;66.40;;;;;;9173431;19;20033;-61
2022/10/12 14:17:23;;;;;;;9.95;2.03;;;16.70;66.20;;;;;;9176886;19;20018;-63
2022/10/12 14:20:33;;;;;;;8.82;2.28;;;16.70;66.30;;;;;;9176239;19;20090;-61
2022/10/12 14:23:41;;;;;;;3.92;2.03;;;16.70;66.10;;;;;;9170823;19;20022;-63
2022/10/12 14:26:52;;;;;;;11.60;2.05;;;16.60;66.10;;;;;;9168676;19;20074;-60
2022/10/12 14:29:58;;;;;;;8.05;2.20;;;16.60;66.00;;;;;;9166392;19;20018;-61
2022/10/12 14:33:12;;;;;;;9.18;1.67;;;16.60;65.90;;;;;;9174689;19;20020;-60
2022/10/12 14:36:24;;;;;;;;;;;16.60;65.80;;;;;;9174600;19;20019;-62
2022/10/12 14:39:28;;;;;;;8.65;1.45;;;16.60;66.10;;;;;;9175277;19;19986;-61
2022/10/12 14:42:34;;;;;;;8.48;2.28;;;16.60;66.20;;;;;;9172340;19;20014;-61
2022/10/12 14:45:38;;;;;;;14.73;5.50;;;16.60;66.00;;;;;;9168677;19;20022;-61
2022/10/12 14:48:42;;;;;;;6.90;2.47;;;16.60;66.00;;;;;;9178307;19;20018;-63
2022/10/12 14:51:49;;;;;;;11.30;2.10;;;16.60;65.90;;;;;;9175362;19;20114;-64
2022/10/12 14:54:53;;;;;;;5.10;1.70;;;16.50;65.80;;;;;;9171579;19;20053;-62
2022/10/12 14:57:57;;;;;;;10.48;1.88;;;16.50;65.80;;;;;;9176480;19;20011;-63
2022/10/12 15:01:00;;;;;;;11.65;2.78;;;16.50;65.70;;;;;;9177074;19;20368;-64
2022/10/12 15:04:04;;;;;;;7.75;2.17;;;16.50;65.80;;;;;;9177239;19;20020;-64
2022/10/12 15:07:15;;;;;;;5.88;2.25;;;16.50;65.70;;;;;;9175563;19;20033;-62
2022/10/12 15:10:21;;;;;;;12.13;2.45;;;16.40;65.60;;;;;;9171710;19;20086;-62
2022/10/12 15:13:25;;;;;;;10.00;2.40;;;16.40;65.70;;;;;;9173181;19;20015;-64
2022/10/12 15:16:32;;;;;;;11.15;2.83;;;16.40;65.70;;;;;;9176352;19;20052;-63
2022/10/12 15:19:35;;;;;;;10.10;2.83;;;16.30;65.60;;;;;;9170601;19;20025;-63
2022/10/12 15:22:43;;;;;;;8.88;2.10;;;16.30;65.70;;;;;;9162039;19;20026;-64
2022/10/12 15:25:51;;;;;;;13.73;2.17;;;16.30;65.70;;;;;;9174127;19;20018;-63
2022/10/12 15:28:54;;;;;;;8.05;2.00;;;16.20;65.60;;;;;;9168769;19;20529;-64
2022/10/12 15:31:59;;;;;;;8.20;2.22;;;16.20;65.60;;;;;;9167054;19;20976;-61
2022/10/12 15:35:10;;;;;;;9.35;2.00;;;16.10;65.60;;;;;;9162331;19;20019;-62
2022/10/12 15:38:16;;;;;;;9.77;2.33;;;16.10;65.70;;;;;;9168424;19;20019;-64
2022/10/12 15:41:24;;;;;;;6.97;2.20;;;16.00;65.60;;;;;;9167599;19;20052;-67
2022/10/12 15:44:28;;;;;;;13.40;2.65;;;15.90;65.60;;;;;;9167616;19;20029;-62
2022/10/12 15:47:32;;;;;;;;;;;15.90;65.80;;;;;;9165864;19;20372;-61
2022/10/12 15:50:38;;;;;;;12.82;2.13;;;15.80;65.80;;;;;;9174324;19;19926;-63
2022/10/12 15:53:44;;;;;;;11.57;2.42;;;15.70;65.80;;;;;;9171372;19;20334;-61
2022/10/12 15:56:47;;;;;;;9.90;2.50;;;15.70;65.90;;;;;;9172818;19;20027;-67
2022/10/12 15:59:52;;;;;;;10.10;2.22;;;15.60;65.90;;;;;;9170113;19;20018;-63
2022/10/12 16:02:57;;;;;;;19.20;2.88;;;15.60;66.00;;;;;;9170357;19;20014;-65
2022/10/12 16:06:02;;;;;;;10.45;2.53;;;15.50;66.00;;;;;;9172989;19;20015;-65
2022/10/12 16:09:07;;;;;;;12.73;2.20;;;15.40;66.00;;;;;;9173931;19;20018;-61
2022/10/12 16:12:11;;;;;;;9.18;2.47;;;15.40;66.10;;;;;;9180712;19;20420;-62
2022/10/12 16:15:17;;;;;;;6.93;3.05;;;15.30;66.10;;;;;;9176020;19;20018;-64
2022/10/12 16:18:21;;;;;;;14.38;3.25;;;15.30;66.20;;;;;;9181066;19;20491;-62
2022/10/12 16:21:25;;;;;;;14.77;3.05;;;15.30;66.30;;;;;;9180287;19;20040;-62